Strona główna
METAR-TAF:

METAR-TAF

Lotnisko :

Caldwell, New Jersey, Stany Zjednoczone

Szerokość geograficzna: 40-52-35N, Długość geograficzna: 074-16-59W, wysokość: 52 m

Aktualna obserwacja pogody

Raport powstał 19 minut temu, godzina 11:36 UTC
Wiatr 4 kt od wschód
Temperatura 22°C
Wilgotność 100%
Ciśnienie 1010 hPa
Widzialność: 4.8 km
Mało chmury na wysokości 2800 ft
Rozproszone chmury na wysokości 10000 ft
Przerywane chmury na wysokości 12000 ft
deszcz, zamglenie

METAR: KCDW 251136Z 09004KT 3SM RA BR FEW028 SCT100 BKN120 22/22 A2983 RMK AO2 LTG DSNT E AND SE TSE1057 P0036 T02220222

czas: 07:55 (11:55 UTC)


TAF: brakujący

Obserwacja i prognoza pogody dla ponad 4000 lotnisk (raport METAR i TAF).

Dostępne stacje oznaczono żółtymi i czerwonymi punktami na mapie.

Najedź kursorem aby zobaczyć nazwę stacji.

Kliknij aby zobaczyć obserwacje i prognozy pogody.

Aby zmienić mapę: kliknij na zielony przycisk z czarnym krzyżykiem, aby powiększyć; na zielony przycisk z myślnikiem, aby pomniejszyć; na zielone strzałki, aby przejść do map sąsiednich.


METAR-TAF: